sensor_id;sensor_type;location;lat;lon;timestamp;P1;durP1;ratioP1;P2;durP2;ratioP2
13685;SDS011;6915;48.296;8.874;2023-07-08T00:02:16;9.52;;;6.65;;
13685;SDS011;6915;48.296;8.874;2023-07-08T00:04:45;8.73;;;6.22;;
13685;SDS011;6915;48.296;8.874;2023-07-08T00:07:15;8.30;;;6.18;;
13685;SDS011;6915;48.296;8.874;2023-07-08T00:09:46;7.45;;;6.55;;
13685;SDS011;6915;48.296;8.874;2023-07-08T00:12:15;7.40;;;6.40;;
13685;SDS011;6915;48.296;8.874;2023-07-08T00:14:43;9.48;;;6.43;;
13685;SDS011;6915;48.296;8.874;2023-07-08T00:17:12;7.75;;;6.05;;
13685;SDS011;6915;48.296;8.874;2023-07-08T00:19:41;9.90;;;6.57;;
13685;SDS011;6915;48.296;8.874;2023-07-08T00:22:11;7.40;;;6.47;;
13685;SDS011;6915;48.296;8.874;2023-07-08T00:24:42;8.55;;;6.45;;
13685;SDS011;6915;48.296;8.874;2023-07-08T00:27:11;8.32;;;6.15;;
13685;SDS011;6915;48.296;8.874;2023-07-08T00:29:40;7.00;;;5.93;;
13685;SDS011;6915;48.296;8.874;2023-07-08T00:32:12;7.13;;;6.43;;
13685;SDS011;6915;48.296;8.874;2023-07-08T00:34:41;6.97;;;5.85;;
13685;SDS011;6915;48.296;8.874;2023-07-08T00:37:10;7.80;;;6.00;;
13685;SDS011;6915;48.296;8.874;2023-07-08T00:39:39;9.93;;;6.30;;
13685;SDS011;6915;48.296;8.874;2023-07-08T00:42:14;8.27;;;6.65;;
13685;SDS011;6915;48.296;8.874;2023-07-08T00:44:45;7.53;;;6.22;;
13685;SDS011;6915;48.296;8.874;2023-07-08T00:47:14;7.35;;;6.43;;
13685;SDS011;6915;48.296;8.874;2023-07-08T00:49:45;7.57;;;5.90;;
13685;SDS011;6915;48.296;8.874;2023-07-08T00:52:17;8.85;;;6.85;;
13685;SDS011;6915;48.296;8.874;2023-07-08T00:54:48;8.02;;;6.43;;
13685;SDS011;6915;48.296;8.874;2023-07-08T00:57:17;8.52;;;5.97;;
13685;SDS011;6915;48.296;8.874;2023-07-08T00:59:48;8.18;;;6.40;;
13685;SDS011;6915;48.296;8.874;2023-07-08T01:02:20;6.28;;;5.65;;
13685;SDS011;6915;48.296;8.874;2023-07-08T01:04:52;7.53;;;6.70;;
13685;SDS011;6915;48.296;8.874;2023-07-08T01:07:27;7.35;;;6.25;;
13685;SDS011;6915;48.296;8.874;2023-07-08T01:09:58;8.98;;;6.45;;
13685;SDS011;6915;48.296;8.874;2023-07-08T01:12:34;6.85;;;6.15;;
13685;SDS011;6915;48.296;8.874;2023-07-08T01:15:05;7.53;;;5.97;;
13685;SDS011;6915;48.296;8.874;2023-07-08T01:17:36;6.65;;;6.00;;
13685;SDS011;6915;48.296;8.874;2023-07-08T01:20:05;7.65;;;5.95;;
13685;SDS011;6915;48.296;8.874;2023-07-08T01:22:39;6.68;;;5.60;;
13685;SDS011;6915;48.296;8.874;2023-07-08T01:25:08;9.07;;;6.03;;
13685;SDS011;6915;48.296;8.874;2023-07-08T01:27:40;6.97;;;5.80;;
13685;SDS011;6915;48.296;8.874;2023-07-08T01:30:12;7.07;;;6.07;;
13685;SDS011;6915;48.296;8.874;2023-07-08T01:32:43;10.80;;;6.65;;
13685;SDS011;6915;48.296;8.874;2023-07-08T01:35:14;10.05;;;6.32;;
13685;SDS011;6915;48.296;8.874;2023-07-08T01:37:47;7.82;;;6.00;;
13685;SDS011;6915;48.296;8.874;2023-07-08T01:40:24;6.50;;;5.57;;
13685;SDS011;6915;48.296;8.874;2023-07-08T01:42:53;7.20;;;5.95;;
13685;SDS011;6915;48.296;8.874;2023-07-08T01:45:24;9.00;;;6.47;;
13685;SDS011;6915;48.296;8.874;2023-07-08T01:47:56;7.50;;;6.43;;
13685;SDS011;6915;48.296;8.874;2023-07-08T01:50:28;9.55;;;6.60;;
13685;SDS011;6915;48.296;8.874;2023-07-08T01:53:00;7.13;;;6.03;;
13685;SDS011;6915;48.296;8.874;2023-07-08T01:55:33;8.32;;;6.45;;
13685;SDS011;6915;48.296;8.874;2023-07-08T01:58:01;7.95;;;6.47;;
13685;SDS011;6915;48.296;8.874;2023-07-08T02:00:30;8.02;;;5.88;;
13685;SDS011;6915;48.296;8.874;2023-07-08T02:02:58;8.23;;;6.50;;
13685;SDS011;6915;48.296;8.874;2023-07-08T02:05:27;8.30;;;6.57;;
13685;SDS011;6915;48.296;8.874;2023-07-08T02:07:55;7.43;;;6.20;;
13685;SDS011;6915;48.296;8.874;2023-07-08T02:10:25;9.93;;;6.20;;
13685;SDS011;6915;48.296;8.874;2023-07-08T02:12:55;9.68;;;6.10;;
13685;SDS011;6915;48.296;8.874;2023-07-08T02:15:25;6.82;;;5.63;;
13685;SDS011;6915;48.296;8.874;2023-07-08T02:17:54;7.53;;;6.32;;
13685;SDS011;6915;48.296;8.874;2023-07-08T02:20:23;7.70;;;6.30;;
13685;SDS011;6915;48.296;8.874;2023-07-08T02:22:51;7.30;;;5.90;;
13685;SDS011;6915;48.296;8.874;2023-07-08T02:25:20;9.25;;;6.15;;
13685;SDS011;6915;48.296;8.874;2023-07-08T02:27:50;9.93;;;6.45;;
13685;SDS011;6915;48.296;8.874;2023-07-08T02:30:19;9.57;;;6.88;;
13685;SDS011;6915;48.296;8.874;2023-07-08T02:32:48;6.90;;;6.20;;
13685;SDS011;6915;48.296;8.874;2023-07-08T02:35:22;7.38;;;6.28;;
13685;SDS011;6915;48.296;8.874;2023-07-08T02:37:52;8.07;;;6.57;;
13685;SDS011;6915;48.296;8.874;2023-07-08T02:40:22;7.70;;;6.35;;
13685;SDS011;6915;48.296;8.874;2023-07-08T02:42:53;7.18;;;6.45;;
13685;SDS011;6915;48.296;8.874;2023-07-08T02:45:21;9.85;;;6.15;;
13685;SDS011;6915;48.296;8.874;2023-07-08T02:47:50;8.30;;;6.38;;
13685;SDS011;6915;48.296;8.874;2023-07-08T02:50:18;7.60;;;6.30;;
13685;SDS011;6915;48.296;8.874;2023-07-08T02:52:47;8.25;;;6.22;;
13685;SDS011;6915;48.296;8.874;2023-07-08T02:55:15;8.60;;;6.43;;
13685;SDS011;6915;48.296;8.874;2023-07-08T02:57:44;6.72;;;5.95;;
13685;SDS011;6915;48.296;8.874;2023-07-08T03:00:15;9.45;;;6.43;;
13685;SDS011;6915;48.296;8.874;2023-07-08T03:02:44;7.85;;;6.20;;
13685;SDS011;6915;48.296;8.874;2023-07-08T03:05:13;7.18;;;5.57;;
13685;SDS011;6915;48.296;8.874;2023-07-08T03:07:41;7.72;;;6.40;;
13685;SDS011;6915;48.296;8.874;2023-07-08T03:10:12;7.18;;;5.90;;
13685;SDS011;6915;48.296;8.874;2023-07-08T03:12:41;8.20;;;5.97;;
13685;SDS011;6915;48.296;8.874;2023-07-08T03:15:09;7.35;;;6.30;;
13685;SDS011;6915;48.296;8.874;2023-07-08T03:17:39;8.00;;;5.75;;
13685;SDS011;6915;48.296;8.874;2023-07-08T03:20:09;6.68;;;5.85;;
13685;SDS011;6915;48.296;8.874;2023-07-08T03:22:39;8.93;;;6.05;;
13685;SDS011;6915;48.296;8.874;2023-07-08T03:25:07;10.02;;;6.68;;
13685;SDS011;6915;48.296;8.874;2023-07-08T03:27:39;7.95;;;6.57;;
13685;SDS011;6915;48.296;8.874;2023-07-08T03:30:10;7.38;;;6.32;;
13685;SDS011;6915;48.296;8.874;2023-07-08T03:32:41;8.82;;;6.28;;
13685;SDS011;6915;48.296;8.874;2023-07-08T03:35:09;7.00;;;6.30;;
13685;SDS011;6915;48.296;8.874;2023-07-08T03:37:38;9.32;;;6.00;;
13685;SDS011;6915;48.296;8.874;2023-07-08T03:40:07;7.90;;;6.03;;
13685;SDS011;6915;48.296;8.874;2023-07-08T03:42:37;9.10;;;6.43;;
13685;SDS011;6915;48.296;8.874;2023-07-08T03:45:06;10.45;;;6.82;;
13685;SDS011;6915;48.296;8.874;2023-07-08T03:47:36;7.88;;;6.32;;
13685;SDS011;6915;48.296;8.874;2023-07-08T03:50:08;7.72;;;6.15;;
13685;SDS011;6915;48.296;8.874;2023-07-08T03:52:40;7.18;;;6.20;;
13685;SDS011;6915;48.296;8.874;2023-07-08T03:55:09;8.82;;;6.43;;
13685;SDS011;6915;48.296;8.874;2023-07-08T03:57:38;6.95;;;6.25;;
13685;SDS011;6915;48.296;8.874;2023-07-08T04:00:07;9.40;;;6.45;;
13685;SDS011;6915;48.296;8.874;2023-07-08T04:02:37;7.35;;;6.13;;
13685;SDS011;6915;48.296;8.874;2023-07-08T04:05:08;9.13;;;6.45;;
13685;SDS011;6915;48.296;8.874;2023-07-08T04:07:38;7.60;;;6.40;;
13685;SDS011;6915;48.296;8.874;2023-07-08T04:10:07;8.43;;;6.50;;
13685;SDS011;6915;48.296;8.874;2023-07-08T04:12:36;7.93;;;6.38;;
13685;SDS011;6915;48.296;8.874;2023-07-08T04:15:05;8.63;;;6.53;;
13685;SDS011;6915;48.296;8.874;2023-07-08T04:17:37;8.52;;;6.32;;
13685;SDS011;6915;48.296;8.874;2023-07-08T04:20:12;9.93;;;6.53;;
13685;SDS011;6915;48.296;8.874;2023-07-08T04:22:43;7.47;;;6.40;;
13685;SDS011;6915;48.296;8.874;2023-07-08T04:25:12;9.48;;;6.57;;
13685;SDS011;6915;48.296;8.874;2023-07-08T04:27:41;10.43;;;6.70;;
13685;SDS011;6915;48.296;8.874;2023-07-08T04:30:12;8.70;;;6.30;;
13685;SDS011;6915;48.296;8.874;2023-07-08T04:32:47;9.27;;;7.07;;
13685;SDS011;6915;48.296;8.874;2023-07-08T04:35:17;7.75;;;6.65;;
13685;SDS011;6915;48.296;8.874;2023-07-08T04:37:45;9.55;;;6.25;;
13685;SDS011;6915;48.296;8.874;2023-07-08T04:40:16;10.85;;;6.45;;
13685;SDS011;6915;48.296;8.874;2023-07-08T04:42:46;7.50;;;6.47;;
13685;SDS011;6915;48.296;8.874;2023-07-08T04:45:17;7.78;;;6.20;;
13685;SDS011;6915;48.296;8.874;2023-07-08T04:47:46;7.32;;;6.45;;
13685;SDS011;6915;48.296;8.874;2023-07-08T04:50:18;8.63;;;6.40;;
13685;SDS011;6915;48.296;8.874;2023-07-08T04:52:48;6.68;;;5.75;;
13685;SDS011;6915;48.296;8.874;2023-07-08T04:55:16;10.55;;;6.20;;
13685;SDS011;6915;48.296;8.874;2023-07-08T04:57:45;6.80;;;5.75;;
13685;SDS011;6915;48.296;8.874;2023-07-08T05:00:15;7.45;;;6.65;;
13685;SDS011;6915;48.296;8.874;2023-07-08T05:02:44;9.68;;;5.97;;
13685;SDS011;6915;48.296;8.874;2023-07-08T05:05:13;7.05;;;6.35;;
13685;SDS011;6915;48.296;8.874;2023-07-08T05:07:43;7.47;;;5.93;;
13685;SDS011;6915;48.296;8.874;2023-07-08T05:10:14;6.65;;;5.90;;
13685;SDS011;6915;48.296;8.874;2023-07-08T05:12:43;8.93;;;6.80;;
13685;SDS011;6915;48.296;8.874;2023-07-08T05:15:14;8.05;;;6.32;;
13685;SDS011;6915;48.296;8.874;2023-07-08T05:17:43;6.70;;;5.68;;
13685;SDS011;6915;48.296;8.874;2023-07-08T05:20:13;6.55;;;5.57;;
13685;SDS011;6915;48.296;8.874;2023-07-08T05:22:45;5.57;;;5.00;;
13685;SDS011;6915;48.296;8.874;2023-07-08T05:25:14;7.35;;;4.38;;
13685;SDS011;6915;48.296;8.874;2023-07-08T05:27:44;5.35;;;3.90;;
13685;SDS011;6915;48.296;8.874;2023-07-08T05:30:13;3.40;;;3.10;;
13685;SDS011;6915;48.296;8.874;2023-07-08T05:32:44;3.60;;;3.30;;
13685;SDS011;6915;48.296;8.874;2023-07-08T05:35:12;6.05;;;3.50;;
13685;SDS011;6915;48.296;8.874;2023-07-08T05:37:41;4.93;;;3.00;;
13685;SDS011;6915;48.296;8.874;2023-07-08T05:40:13;5.05;;;3.05;;
13685;SDS011;6915;48.296;8.874;2023-07-08T05:42:42;3.20;;;2.90;;
13685;SDS011;6915;48.296;8.874;2023-07-08T05:45:11;4.65;;;2.78;;
13685;SDS011;6915;48.296;8.874;2023-07-08T05:47:41;3.53;;;2.78;;
13685;SDS011;6915;48.296;8.874;2023-07-08T05:50:09;5.43;;;2.83;;
13685;SDS011;6915;48.296;8.874;2023-07-08T05:52:38;7.07;;;3.10;;
13685;SDS011;6915;48.296;8.874;2023-07-08T05:55:07;4.25;;;2.92;;
13685;SDS011;6915;48.296;8.874;2023-07-08T05:57:38;3.90;;;2.95;;
13685;SDS011;6915;48.296;8.874;2023-07-08T06:00:07;3.13;;;2.53;;
13685;SDS011;6915;48.296;8.874;2023-07-08T06:02:37;4.00;;;2.58;;
13685;SDS011;6915;48.296;8.874;2023-07-08T06:05:06;3.50;;;2.67;;
13685;SDS011;6915;48.296;8.874;2023-07-08T06:07:35;3.03;;;2.72;;
13685;SDS011;6915;48.296;8.874;2023-07-08T06:10:06;4.15;;;2.83;;
13685;SDS011;6915;48.296;8.874;2023-07-08T06:12:38;3.28;;;2.60;;
13685;SDS011;6915;48.296;8.874;2023-07-08T06:15:07;2.85;;;2.30;;
13685;SDS011;6915;48.296;8.874;2023-07-08T06:17:37;3.20;;;2.40;;
13685;SDS011;6915;48.296;8.874;2023-07-08T06:20:06;3.05;;;2.60;;
13685;SDS011;6915;48.296;8.874;2023-07-08T06:22:36;4.47;;;2.70;;
13685;SDS011;6915;48.296;8.874;2023-07-08T06:25:05;3.47;;;2.22;;
13685;SDS011;6915;48.296;8.874;2023-07-08T06:27:34;2.55;;;2.10;;
13685;SDS011;6915;48.296;8.874;2023-07-08T06:30:05;2.50;;;2.05;;
13685;SDS011;6915;48.296;8.874;2023-07-08T06:32:35;2.83;;;2.40;;
13685;SDS011;6915;48.296;8.874;2023-07-08T06:35:04;3.60;;;2.30;;
13685;SDS011;6915;48.296;8.874;2023-07-08T06:37:34;3.60;;;2.30;;
13685;SDS011;6915;48.296;8.874;2023-07-08T06:40:02;3.83;;;2.15;;
13685;SDS011;6915;48.296;8.874;2023-07-08T06:42:31;2.85;;;2.00;;
13685;SDS011;6915;48.296;8.874;2023-07-08T06:45:00;2.53;;;2.13;;
13685;SDS011;6915;48.296;8.874;2023-07-08T06:47:30;4.15;;;2.10;;
13685;SDS011;6915;48.296;8.874;2023-07-08T06:49:59;2.40;;;1.75;;
13685;SDS011;6915;48.296;8.874;2023-07-08T06:52:28;2.65;;;1.85;;
13685;SDS011;6915;48.296;8.874;2023-07-08T06:55:06;3.38;;;2.10;;
13685;SDS011;6915;48.296;8.874;2023-07-08T06:57:37;5.22;;;1.90;;
13685;SDS011;6915;48.296;8.874;2023-07-08T07:00:06;4.25;;;1.88;;
13685;SDS011;6915;48.296;8.874;2023-07-08T07:02:38;5.30;;;1.90;;
13685;SDS011;6915;48.296;8.874;2023-07-08T07:05:07;3.53;;;2.40;;
13685;SDS011;6915;48.296;8.874;2023-07-08T07:07:36;2.20;;;2.00;;
13685;SDS011;6915;48.296;8.874;2023-07-08T07:10:05;4.07;;;2.13;;
13685;SDS011;6915;48.296;8.874;2023-07-08T07:12:34;6.53;;;2.00;;
13685;SDS011;6915;48.296;8.874;2023-07-08T07:15:03;2.97;;;2.00;;
13685;SDS011;6915;48.296;8.874;2023-07-08T07:17:33;3.22;;;1.83;;
13685;SDS011;6915;48.296;8.874;2023-07-08T07:20:03;2.75;;;2.17;;
13685;SDS011;6915;48.296;8.874;2023-07-08T07:22:32;3.13;;;2.03;;
13685;SDS011;6915;48.296;8.874;2023-07-08T07:25:01;2.38;;;2.03;;
13685;SDS011;6915;48.296;8.874;2023-07-08T07:27:30;3.20;;;1.83;;
13685;SDS011;6915;48.296;8.874;2023-07-08T07:29:59;2.55;;;2.00;;
13685;SDS011;6915;48.296;8.874;2023-07-08T07:32:27;2.70;;;1.88;;
13685;SDS011;6915;48.296;8.874;2023-07-08T07:34:57;3.72;;;1.85;;
13685;SDS011;6915;48.296;8.874;2023-07-08T07:37:28;2.58;;;2.10;;
13685;SDS011;6915;48.296;8.874;2023-07-08T07:39:56;2.30;;;2.00;;
13685;SDS011;6915;48.296;8.874;2023-07-08T07:42:26;2.35;;;1.98;;
13685;SDS011;6915;48.296;8.874;2023-07-08T07:44:55;3.65;;;2.08;;
13685;SDS011;6915;48.296;8.874;2023-07-08T07:47:24;3.25;;;2.00;;
13685;SDS011;6915;48.296;8.874;2023-07-08T07:49:52;3.00;;;2.00;;
13685;SDS011;6915;48.296;8.874;2023-07-08T07:52:21;3.67;;;1.90;;
13685;SDS011;6915;48.296;8.874;2023-07-08T07:54:52;4.35;;;2.28;;
13685;SDS011;6915;48.296;8.874;2023-07-08T07:57:21;6.15;;;2.17;;
13685;SDS011;6915;48.296;8.874;2023-07-08T07:59:50;1.95;;;1.80;;
13685;SDS011;6915;48.296;8.874;2023-07-08T08:02:18;3.20;;;2.00;;
13685;SDS011;6915;48.296;8.874;2023-07-08T08:04:47;1.83;;;1.73;;
13685;SDS011;6915;48.296;8.874;2023-07-08T08:07:15;3.55;;;1.90;;
13685;SDS011;6915;48.296;8.874;2023-07-08T08:09:44;2.30;;;2.10;;
13685;SDS011;6915;48.296;8.874;2023-07-08T08:12:14;3.38;;;2.33;;
13685;SDS011;6915;48.296;8.874;2023-07-08T08:14:43;3.20;;;1.83;;
13685;SDS011;6915;48.296;8.874;2023-07-08T08:17:12;3.85;;;2.05;;
13685;SDS011;6915;48.296;8.874;2023-07-08T08:19:40;2.70;;;2.08;;
13685;SDS011;6915;48.296;8.874;2023-07-08T08:22:09;3.72;;;2.00;;
13685;SDS011;6915;48.296;8.874;2023-07-08T08:24:37;2.65;;;1.95;;
13685;SDS011;6915;48.296;8.874;2023-07-08T08:27:06;3.40;;;2.20;;
13685;SDS011;6915;48.296;8.874;2023-07-08T08:29:36;2.63;;;1.70;;
13685;SDS011;6915;48.296;8.874;2023-07-08T08:32:05;2.53;;;2.17;;
13685;SDS011;6915;48.296;8.874;2023-07-08T08:34:33;2.25;;;1.90;;
13685;SDS011;6915;48.296;8.874;2023-07-08T08:37:01;2.28;;;2.08;;
13685;SDS011;6915;48.296;8.874;2023-07-08T08:39:30;3.33;;;2.20;;
13685;SDS011;6915;48.296;8.874;2023-07-08T08:41:59;2.42;;;1.90;;
13685;SDS011;6915;48.296;8.874;2023-07-08T08:44:29;2.38;;;1.90;;
13685;SDS011;6915;48.296;8.874;2023-07-08T08:47:04;2.13;;;1.92;;
13685;SDS011;6915;48.296;8.874;2023-07-08T08:49:40;4.05;;;1.73;;
13685;SDS011;6915;48.296;8.874;2023-07-08T08:52:11;3.22;;;1.67;;
13685;SDS011;6915;48.296;8.874;2023-07-08T08:54:40;3.05;;;1.83;;
13685;SDS011;6915;48.296;8.874;2023-07-08T08:57:12;1.90;;;1.70;;
13685;SDS011;6915;48.296;8.874;2023-07-08T08:59:55;4.15;;;1.55;;
13685;SDS011;6915;48.296;8.874;2023-07-08T09:02:31;3.35;;;1.73;;
13685;SDS011;6915;48.296;8.874;2023-07-08T09:05:04;3.63;;;1.88;;
13685;SDS011;6915;48.296;8.874;2023-07-08T09:07:36;2.78;;;1.50;;
13685;SDS011;6915;48.296;8.874;2023-07-08T09:10:15;1.65;;;1.50;;
13685;SDS011;6915;48.296;8.874;2023-07-08T09:12:51;1.73;;;1.55;;
13685;SDS011;6915;48.296;8.874;2023-07-08T09:15:23;1.65;;;1.52;;
13685;SDS011;6915;48.296;8.874;2023-07-08T09:17:56;1.63;;;1.50;;
13685;SDS011;6915;48.296;8.874;2023-07-08T09:20:33;1.60;;;1.40;;
13685;SDS011;6915;48.296;8.874;2023-07-08T09:23:03;2.63;;;1.90;;
13685;SDS011;6915;48.296;8.874;2023-07-08T09:25:39;3.35;;;1.88;;
13685;SDS011;6915;48.296;8.874;2023-07-08T09:28:13;2.75;;;1.70;;
13685;SDS011;6915;48.296;8.874;2023-07-08T09:30:42;1.92;;;1.73;;
13685;SDS011;6915;48.296;8.874;2023-07-08T09:33:20;1.98;;;1.77;;
13685;SDS011;6915;48.296;8.874;2023-07-08T09:35:50;2.85;;;1.70;;
13685;SDS011;6915;48.296;8.874;2023-07-08T09:38:21;2.10;;;1.73;;
13685;SDS011;6915;48.296;8.874;2023-07-08T09:40:50;3.45;;;1.70;;
13685;SDS011;6915;48.296;8.874;2023-07-08T09:43:23;2.03;;;1.77;;
13685;SDS011;6915;48.296;8.874;2023-07-08T09:46:03;3.60;;;1.67;;
13685;SDS011;6915;48.296;8.874;2023-07-08T09:48:38;3.60;;;1.80;;
13685;SDS011;6915;48.296;8.874;2023-07-08T09:51:06;3.83;;;1.70;;
13685;SDS011;6915;48.296;8.874;2023-07-08T09:53:35;2.63;;;1.90;;
13685;SDS011;6915;48.296;8.874;2023-07-08T09:56:04;1.60;;;1.50;;
13685;SDS011;6915;48.296;8.874;2023-07-08T09:58:35;2.17;;;2.05;;
13685;SDS011;6915;48.296;8.874;2023-07-08T10:01:09;2.35;;;1.90;;
13685;SDS011;6915;48.296;8.874;2023-07-08T10:03:41;2.03;;;1.73;;
13685;SDS011;6915;48.296;8.874;2023-07-08T10:06:14;1.48;;;1.38;;
13685;SDS011;6915;48.296;8.874;2023-07-08T10:08:48;2.13;;;1.17;;
13685;SDS011;6915;48.296;8.874;2023-07-08T10:11:20;2.42;;;1.50;;
13685;SDS011;6915;48.296;8.874;2023-07-08T10:13:52;2.13;;;1.60;;
13685;SDS011;6915;48.296;8.874;2023-07-08T10:16:23;2.35;;;1.40;;
13685;SDS011;6915;48.296;8.874;2023-07-08T10:18:54;1.35;;;1.13;;
13685;SDS011;6915;48.296;8.874;2023-07-08T10:24:16;5.13;;;4.60;;
13685;SDS011;6915;48.296;8.874;2023-07-08T10:26:55;2.40;;;1.25;;
13685;SDS011;6915;48.296;8.874;2023-07-08T10:29:31;3.53;;;2.92;;
13685;SDS011;6915;48.296;8.874;2023-07-08T10:32:08;2.97;;;2.50;;
13685;SDS011;6915;48.296;8.874;2023-07-08T10:34:45;1.35;;;1.15;;
13685;SDS011;6915;48.296;8.874;2023-07-08T10:37:40;1.00;;;0.90;;
13685;SDS011;6915;48.296;8.874;2023-07-08T10:40:19;1.23;;;1.13;;
13685;SDS011;6915;48.296;8.874;2023-07-08T10:43:00;1.67;;;1.13;;
13685;SDS011;6915;48.296;8.874;2023-07-08T10:45:46;0.90;;;0.90;;
13685;SDS011;6915;48.296;8.874;2023-07-08T10:48:24;1.52;;;1.10;;
13685;SDS011;6915;48.296;8.874;2023-07-08T10:51:07;2.08;;;1.00;;
13685;SDS011;6915;48.296;8.874;2023-07-08T10:53:47;1.27;;;1.17;;
13685;SDS011;6915;48.296;8.874;2023-07-08T10:56:28;1.52;;;1.30;;
13685;SDS011;6915;48.296;8.874;2023-07-08T11:02:08;1.92;;;1.25;;
13685;SDS011;6915;48.296;8.874;2023-07-08T11:04:50;3.00;;;1.15;;
13685;SDS011;6915;48.296;8.874;2023-07-08T11:07:30;2.90;;;1.00;;
13685;SDS011;6915;48.296;8.874;2023-07-08T11:10:05;1.60;;;1.50;;
13685;SDS011;6915;48.296;8.874;2023-07-08T11:12:38;1.20;;;1.10;;
13685;SDS011;6915;48.296;8.874;2023-07-08T11:15:13;2.88;;;1.15;;
13685;SDS011;6915;48.296;8.874;2023-07-08T11:17:48;1.55;;;1.10;;
13685;SDS011;6915;48.296;8.874;2023-07-08T11:20:20;1.48;;;1.30;;
13685;SDS011;6915;48.296;8.874;2023-07-08T11:22:57;3.13;;;1.33;;
13685;SDS011;6915;48.296;8.874;2023-07-08T11:25:32;3.72;;;1.42;;
13685;SDS011;6915;48.296;8.874;2023-07-08T11:28:03;1.70;;;1.45;;
13685;SDS011;6915;48.296;8.874;2023-07-08T11:30:37;2.35;;;2.00;;
13685;SDS011;6915;48.296;8.874;2023-07-08T11:33:08;2.70;;;2.00;;
13685;SDS011;6915;48.296;8.874;2023-07-08T11:35:40;4.88;;;4.47;;
13685;SDS011;6915;48.296;8.874;2023-07-08T11:38:13;1.90;;;1.42;;
13685;SDS011;6915;48.296;8.874;2023-07-08T11:40:50;2.38;;;2.15;;
13685;SDS011;6915;48.296;8.874;2023-07-08T11:43:19;2.58;;;2.38;;
13685;SDS011;6915;48.296;8.874;2023-07-08T11:45:50;2.95;;;2.08;;
13685;SDS011;6915;48.296;8.874;2023-07-08T11:48:24;3.22;;;2.95;;
13685;SDS011;6915;48.296;8.874;2023-07-08T11:50:56;1.90;;;1.63;;
13685;SDS011;6915;48.296;8.874;2023-07-08T11:53:38;4.47;;;2.70;;
13685;SDS011;6915;48.296;8.874;2023-07-08T11:56:20;1.83;;;1.50;;
13685;SDS011;6915;48.296;8.874;2023-07-08T11:58:53;1.70;;;1.60;;
13685;SDS011;6915;48.296;8.874;2023-07-08T12:01:32;1.63;;;1.50;;
13685;SDS011;6915;48.296;8.874;2023-07-08T12:04:25;2.55;;;1.70;;
13685;SDS011;6915;48.296;8.874;2023-07-08T12:07:06;1.98;;;1.77;;
13685;SDS011;6915;48.296;8.874;2023-07-08T12:09:43;1.80;;;1.70;;
13685;SDS011;6915;48.296;8.874;2023-07-08T22:57:39;4.85;;;3.42;;
13685;SDS011;6915;48.296;8.874;2023-07-08T23:00:15;3.33;;;3.05;;
13685;SDS011;6915;48.296;8.874;2023-07-08T23:02:45;3.42;;;3.13;;
13685;SDS011;6915;48.296;8.874;2023-07-08T23:05:17;5.28;;;3.55;;
13685;SDS011;6915;48.296;8.874;2023-07-08T23:07:48;3.63;;;3.33;;
13685;SDS011;6915;48.296;8.874;2023-07-08T23:10:18;3.47;;;3.17;;
13685;SDS011;6915;48.296;8.874;2023-07-08T23:12:47;3.67;;;3.38;;
13685;SDS011;6915;48.296;8.874;2023-07-08T23:15:16;4.85;;;3.60;;
13685;SDS011;6915;48.296;8.874;2023-07-08T23:17:50;4.82;;;3.60;;
13685;SDS011;6915;48.296;8.874;2023-07-08T23:20:51;3.83;;;3.50;;
13685;SDS011;6915;48.296;8.874;2023-07-08T23:23:46;4.10;;;3.20;;
13685;SDS011;6915;48.296;8.874;2023-07-08T23:26:17;3.90;;;3.50;;
13685;SDS011;6915;48.296;8.874;2023-07-08T23:28:49;3.80;;;3.50;;
13685;SDS011;6915;48.296;8.874;2023-07-08T23:31:19;3.88;;;3.40;;
13685;SDS011;6915;48.296;8.874;2023-07-08T23:33:50;4.28;;;3.72;;
13685;SDS011;6915;48.296;8.874;2023-07-08T23:36:21;4.70;;;3.40;;
13685;SDS011;6915;48.296;8.874;2023-07-08T23:38:55;3.75;;;3.33;;
13685;SDS011;6915;48.296;8.874;2023-07-08T23:41:26;3.40;;;3.10;;
13685;SDS011;6915;48.296;8.874;2023-07-08T23:43:57;3.80;;;3.50;;
13685;SDS011;6915;48.296;8.874;2023-07-08T23:46:27;5.90;;;3.53;;
13685;SDS011;6915;48.296;8.874;2023-07-08T23:48:58;5.47;;;3.58;;
13685;SDS011;6915;48.296;8.874;2023-07-08T23:51:40;4.53;;;3.25;;
13685;SDS011;6915;48.296;8.874;2023-07-08T23:54:24;3.75;;;3.45;;
13685;SDS011;6915;48.296;8.874;2023-07-08T23:56:55;3.50;;;3.20;;
13685;SDS011;6915;48.296;8.874;2023-07-08T23:59:26;6.45;;;3.58;;
